Meteo Giornale » Osservazioni meteo Russia » Volgograd
ore: 08:30 - Osservazioni Meteo Volgograd
Lat. 48° 47' N Lon. 44° 22' E Alt. 145 metri s.l.m.
21 °C
Sereno
Temp. 24 Ore
12 °C
25 °C
Sud
10.8 Km/h
Dew point 2 °C
Umidità 28 %
Visibilità 10 Km
Il sole sorge alle ore 05:19
Il sole tramonta alle ore 18:45
| Data e Ora | Cielo e Fenomeni | T °C | DP °C | Um. % | Pres. hPa | Vis. km | Vento km/h | |
|---|---|---|---|---|---|---|---|---|
| Oggi h: 08:30 | Sereno | 21 | 2 | 28 | 1023 | 10 | S 10.8 | |
| Oggi h: 08:00 | Sereno | 19 | 2 | 32 | 1023 | 10 | SE 10.8 | |
| Oggi h: 07:30 | Sereno | 18 | 3 | 36 | 1023 | 10 | S/SE 14.4 | |
| Oggi h: 07:00 | Sereno | 19 | 0 | 27 | 1022 | 10 | SE 10.8 | |
| Oggi h: 06:30 | Sereno | 17 | 1 | 33 | 1022 | 10 | E 10.8 | |
| Oggi h: 06:00 | Sereno | 13 | 0 | 40 | 1022 | 10 | E 14.4 | |
| Oggi h: 05:30 | Sereno | 12 | -1 | 40 | 1022 | 10 | E 14.4 | |
| Oggi h: 05:00 | Sereno | 13 | -1 | 37 | 1022 | 10 | E/SE 10.8 | |
| Oggi h: 04:30 | Sereno | 13 | -1 | 37 | 1022 | 10 | SE 10.8 | |
| Oggi h: 04:00 | Sereno | 14 | -1 | 35 | 1022 | 10 | SE 14.4 | |
| Oggi h: 03:30 | Sereno | 13 | 0 | 40 | 1022 | 10 | SE 14.4 | |
| Oggi h: 03:00 | Sereno | 13 | -1 | 37 | 1022 | 10 | E/SE 14.4 | |
| Oggi h: 02:30 | Sereno | 14 | -2 | 32 | 1022 | 10 | SE 14.4 | |
| Oggi h: 02:00 | Sereno | 15 | -2 | 30 | 1022 | 10 | SE 18 | |
| Oggi h: 01:30 | Sereno | 15 | -2 | 30 | 1022 | 10 | E/SE 18 | |
| Oggi h: 01:00 | Sereno | 15 | -3 | 28 | 1022 | 10 | E/SE 18 | |
| Oggi h: 00:30 | Sereno | 16 | -2 | 29 | 1022 | 10 | E/SE 18 | |
| Oggi h: 00:00 | Sereno | 15 | -2 | 30 | 1022 | 10 | SE 18 | |
| Ieri h: 23:30 | Sereno | 16 | -2 | 29 | 1022 | 10 | SE 14.4 | |
| Ieri h: 23:00 | Sereno | 16 | -3 | 26 | 1022 | 10 | SE 14.4 | |
| Ieri h: 22:30 | Sereno | 16 | -3 | 26 | 1022 | 10 | SE 14.4 | |
| Ieri h: 22:00 | Sereno | 17 | -3 | 25 | 1022 | 10 | SE 14.4 | |
| Ieri h: 21:30 | Sereno | 17 | -4 | 23 | 1022 | 10 | SE 14.4 | |
| Ieri h: 21:00 | Sereno | 17 | -4 | 23 | 1022 | 10 | E/SE 14.4 | |
| Ieri h: 20:30 | Sereno | 18 | -4 | 22 | 1022 | 10 | E/SE 14.4 | |
| Ieri h: 20:00 | Sereno | 17 | -3 | 25 | 1022 | 10 | E/SE 14.4 | |
| Ieri h: 19:30 | Sereno | 18 | -3 | 23 | 1022 | 10 | E/SE 14.4 | |
| Ieri h: 19:00 | Sereno | 20 | -3 | 20 | 1022 | 10 | E/SE 14.4 | |
| Ieri h: 18:30 | Sereno | 22 | -2 | 19 | 1022 | 10 | E/SE 14.4 | |
| Ieri h: 18:00 | Sereno | 23 | -3 | 17 | 1022 | 10 | E/SE 14.4 | |
| Ieri h: 17:30 | Sereno | 24 | -4 | 15 | 1022 | 10 | E/SE 14.4 | |
| Ieri h: 17:00 | Sereno | 25 | -5 | 13 | 1022 | 10 | SE 10.8 | |
| Ieri h: 16:30 | Sereno | 25 | -5 | 13 | 1022 | 10 | SE 10.8 | |
| Ieri h: 16:00 | Sereno | 25 | -5 | 13 | 1022 | 10 | SE 14.4 | |
| Ieri h: 15:30 | Sereno | 25 | -5 | 13 | 1022 | 10 | E/NE 10.8 | |
| Ieri h: 15:00 | Sereno | 25 | -5 | 13 | 1022 | 10 | SE 14.4 | |
| Ieri h: 14:30 | Sereno | 25 | -4 | 14 | 1023 | 10 | S/SE 14.4 | |
| Ieri h: 14:00 | Sereno | 25 | -3 | 15 | 1023 | 10 | SE 14.4 | |
| Ieri h: 13:30 | Sereno | 25 | -4 | 14 | 1023 | 10 | S/SE 10.8 | |
| Ieri h: 13:00 | Sereno | 24 | -2 | 17 | 1023 | 10 | E 10.8 | |
| Ieri h: 12:30 | Sereno | 24 | -2 | 17 | 1023 | 10 | E/SE 14.4 | |
| Ieri h: 12:00 | Sereno | 24 | -2 | 17 | 1023 | 10 | E/SE 14.4 | |
| Ieri h: 11:30 | Sereno | 24 | -3 | 16 | 1024 | 10 | E/SE 14.4 | |
| Ieri h: 11:00 | Sereno | 23 | -3 | 17 | 1024 | 10 | E/SE 14.4 | |
| Ieri h: 10:30 | Sereno | 23 | -4 | 16 | 1024 | 10 | SE 14.4 | |
| Ieri h: 10:00 | Sereno | 23 | -3 | 17 | 1024 | 10 | SE 14.4 | |
| Ieri h: 09:30 | Sereno | 23 | -3 | 17 | 1024 | 10 | SE 18 | |
| Ieri h: 09:00 | Sereno | 22 | -3 | 18 | 1025 | 10 | SE 14.4 | |



